WMKM/MKZ METAR and TAF weather

Enter ICAO airport designator
Station Type Date Time Source
WMKM METAR 2019/04/25 07:00 UTC NOAA

WMKM 250700Z 18005KT 110V260 9999 FEW020 SCT140 BKN270 32/24 Q1006


Station Type Date Time Source
WMKM Decoded METAR 2019/04/25 07:00 UTC NOAA

Malacca, Malaysia (WMKM) 02-16N 102-15E 9M
Apr 25, 2019 - 03:00 AM EDT / 2019.04.25 0700 UTC
Wind: from the S (180 degrees) at 6 MPH (5 KT) (direction variable):0
Visibility: greater than 7 mile(s):0
Sky conditions: mostly cloudy
Temperature: 89 F (32 C)
Heat index: 98.4 F (36.9 C):1
Dew Point: 75 F (24 C)
Relative Humidity: 62%
Pressure (altimeter): 29.71 in. Hg (1006 hPa)
ob: WMKM 250700Z 18005KT 110V260 9999 FEW020 SCT140 BKN270 32/24 Q1006
cycle: 7

Station Type Date Time Source
WMKM TAF 2019/04/25 06:00 UTC NOAA

TAF WMKM 250500Z 2506/2606 VRB03KT 9999 FEW017CB
TEMPO 2507/2511 21006KT 3000 TSRA FEW010 FEW016CB SCT020
BECMG 2512/2513 12005KT FEW030
BECMG 2515/2516 VRB02KT

Example: see airport list